Time;durP1;ratioP1;P1;durP2;ratioP2;P2;SDS_P1;SDS_P2;PMS_P1;PMS_P2;Temp;Humidity;BMP_temperature;BMP_pressure;BME280_temperature;BME280_humidity;BME280_pressure;Samples;Min_cycle;Max_cycle;Signal;HPM_P1;HPM_P2
2020/12/11 00:01:58;;;;;;;24.15;9.27;;;;;;;;;;4807493;29;20031;-77
2020/12/11 00:04:25;;;;;;;25.08;9.75;;;;;;;;;;4807246;29;20106;-75
2020/12/11 00:06:51;;;;;;;25.00;8.15;;;;;;;;;;4806067;29;20434;-76
2020/12/11 00:09:17;;;;;;;26.85;9.52;;;;;;;;;;4806127;29;20035;-77
2020/12/11 00:11:43;;;;;;;28.13;9.57;;;;;;;;;;4805894;29;20031;-78
2020/12/11 00:14:09;;;;;;;29.42;9.43;;;;;;;;;;4806059;29;20474;-77
2020/12/11 00:16:35;;;;;;;23.02;8.88;;;;;;;;;;4805773;29;20121;-76
2020/12/11 00:19:01;;;;;;;20.38;8.60;;;;;;;;;;4806865;29;20342;-79
2020/12/11 00:21:28;;;;;;;27.83;9.18;;;;;;;;;;4807010;29;20031;-79
2020/12/11 00:23:54;;;;;;;20.17;8.50;;;;;;;;;;4806440;29;20035;-79
2020/12/11 00:26:20;;;;;;;27.23;8.93;;;;;;;;;;4805747;29;20039;-79
2020/12/11 00:28:46;;;;;;;21.88;8.57;;;;;;;;;;4805645;29;20027;-77
2020/12/11 00:31:12;;;;;;;23.23;8.85;;;;;;;;;;4805531;29;20118;-78
2020/12/11 00:33:38;;;;;;;27.35;8.43;;;;;;;;;;4806947;29;20034;-77
2020/12/11 00:36:04;;;;;;;21.42;9.18;;;;;;;;;;4805533;29;20039;-77
2020/12/11 00:38:30;;;;;;;23.15;8.98;;;;;;;;;;4805463;29;20042;-76
2020/12/11 00:40:57;;;;;;;29.33;10.65;;;;;;;;;;4805211;29;20404;-78
2020/12/11 00:43:23;;;;;;;28.77;11.45;;;;;;;;;;4806724;29;20116;-79
2020/12/11 00:45:49;;;;;;;31.08;11.32;;;;;;;;;;4805575;29;20035;-78
2020/12/11 00:48:15;;;;;;;36.90;11.85;;;;;;;;;;4805197;29;20094;-78
2020/12/11 00:50:41;;;;;;;27.83;10.43;;;;;;;;;;4806679;29;20106;-79
2020/12/11 00:53:07;;;;;;;20.95;8.00;;;;;;;;;;4805091;29;20038;-79
2020/12/11 00:55:33;;;;;;;27.77;9.63;;;;;;;;;;4805362;29;20134;-77
2020/12/11 00:57:59;;;;;;;22.00;8.63;;;;;;;;;;4805157;29;20084;-78
2020/12/11 01:00:25;;;;;;;27.38;9.02;;;;;;;;;;4805060;29;20043;-76
2020/12/11 01:02:52;;;;;;;28.23;9.13;;;;;;;;;;4804854;29;20035;-77
2020/12/11 01:05:18;;;;;;;23.60;9.27;;;;;;;;;;4806255;29;20370;-78
2020/12/11 01:07:44;;;;;;;21.50;8.07;;;;;;;;;;4805002;29;20437;-78
2020/12/11 01:10:10;;;;;;;24.85;8.75;;;;;;;;;;4804969;29;20126;-78
2020/12/11 01:12:36;;;;;;;22.35;8.43;;;;;;;;;;4804895;29;20168;-77
2020/12/11 01:15:03;;;;;;;25.50;9.80;;;;;;;;;;4806453;29;20454;-78
2020/12/11 01:17:29;;;;;;;28.65;9.18;;;;;;;;;;4804669;29;20389;-77
2020/12/11 01:19:55;;;;;;;25.48;9.48;;;;;;;;;;4804679;29;20043;-78
2020/12/11 01:22:21;;;;;;;25.15;8.98;;;;;;;;;;4804921;29;20037;-79
2020/12/11 01:24:47;;;;;;;29.67;9.05;;;;;;;;;;4804708;29;20062;-78
2020/12/11 01:27:13;;;;;;;24.42;9.07;;;;;;;;;;4804827;29;20055;-78
2020/12/11 01:29:39;;;;;;;28.92;8.73;;;;;;;;;;4804543;29;20087;-78
2020/12/11 01:32:05;;;;;;;23.77;8.30;;;;;;;;;;4804843;29;20111;-76
2020/12/11 01:34:31;;;;;;;21.70;8.13;;;;;;;;;;4804582;29;20081;-78
2020/12/11 01:37:02;;;;;;;26.40;8.10;;;;;;;;;;4804621;29;20088;-78
2020/12/11 01:39:28;;;;;;;19.80;7.68;;;;;;;;;;4804641;29;20050;-79
2020/12/11 01:41:54;;;;;;;25.98;8.55;;;;;;;;;;4804592;29;20035;-77
2020/12/11 01:44:20;;;;;;;23.80;9.07;;;;;;;;;;4804512;29;20077;-78
2020/12/11 01:46:48;;;;;;;17.08;6.72;;;;;;;;;;4804592;29;20493;-78
2020/12/11 01:49:14;;;;;;;23.15;7.82;;;;;;;;;;4804349;29;20059;-76
2020/12/11 01:51:40;;;;;;;22.45;7.53;;;;;;;;;;4804673;29;20438;-76
2020/12/11 01:54:07;;;;;;;20.48;6.95;;;;;;;;;;4804620;29;20414;-77
2020/12/11 01:56:33;;;;;;;20.35;6.75;;;;;;;;;;4804537;29;20031;-78
2020/12/11 01:59:03;;;;;;;20.05;7.18;;;;;;;;;;4804211;29;20062;-78
2020/12/11 02:01:35;;;;;;;18.45;7.00;;;;;;;;;;4804491;29;20038;-78
2020/12/11 02:04:01;;;;;;;18.58;6.25;;;;;;;;;;4804569;29;20027;-77
2020/12/11 02:06:27;;;;;;;18.33;6.65;;;;;;;;;;4805613;29;20031;-78
2020/12/11 02:08:56;;;;;;;20.67;8.05;;;;;;;;;;4805433;29;20031;-78
2020/12/11 02:11:23;;;;;;;17.45;6.60;;;;;;;;;;4804409;29;20027;-78
2020/12/11 02:13:50;;;;;;;16.15;6.30;;;;;;;;;;4804413;29;20125;-78
2020/12/11 02:16:20;;;;;;;21.85;7.47;;;;;;;;;;4804331;29;20043;-77
2020/12/11 02:18:46;;;;;;;18.25;6.70;;;;;;;;;;4804305;29;20050;-77
2020/12/11 02:21:12;;;;;;;18.40;6.72;;;;;;;;;;4804218;29;20035;-78
2020/12/11 02:23:38;;;;;;;15.30;6.72;;;;;;;;;;4805716;29;20071;-76
2020/12/11 02:26:04;;;;;;;19.27;7.55;;;;;;;;;;4804465;29;20444;-76
2020/12/11 02:28:31;;;;;;;19.35;7.50;;;;;;;;;;4804352;29;20549;-77
2020/12/11 02:30:57;;;;;;;19.70;7.05;;;;;;;;;;4804148;29;20034;-77
2020/12/11 02:33:23;;;;;;;19.42;7.45;;;;;;;;;;4805589;29;20045;-77
2020/12/11 02:35:50;;;;;;;19.48;7.30;;;;;;;;;;4804219;29;20031;-77
2020/12/11 02:38:16;;;;;;;15.48;6.72;;;;;;;;;;4804316;29;20031;-78
2020/12/11 02:40:53;;;;;;;21.33;8.43;;;;;;;;;;4804336;29;20054;-76
2020/12/11 02:43:19;;;;;;;19.65;7.55;;;;;;;;;;4805638;29;20073;-78
2020/12/11 02:45:46;;;;;;;17.90;7.40;;;;;;;;;;4804129;29;20055;-78
2020/12/11 02:48:13;;;;;;;19.73;7.85;;;;;;;;;;4805674;29;20505;-77
2020/12/11 02:50:39;;;;;;;21.20;8.63;;;;;;;;;;4807338;29;20121;-77
2020/12/11 02:53:06;;;;;;;18.48;7.10;;;;;;;;;;4811104;29;20027;-76
2020/12/11 02:55:32;;;;;;;20.08;7.82;;;;;;;;;;4808741;29;20107;-76
2020/12/11 02:57:58;;;;;;;18.85;7.03;;;;;;;;;;4807396;29;20463;-78
2020/12/11 03:00:24;;;;;;;19.23;7.85;;;;;;;;;;4807014;29;20047;-76
2020/12/11 03:02:50;;;;;;;19.02;8.55;;;;;;;;;;4807335;29;20034;-78
2020/12/11 03:05:16;;;;;;;27.05;9.13;;;;;;;;;;4808414;29;20426;-77
2020/12/11 03:07:42;;;;;;;18.63;6.95;;;;;;;;;;4806991;29;20026;-78
2020/12/11 03:10:09;;;;;;;22.50;8.50;;;;;;;;;;4808475;29;20035;-77
2020/12/11 03:12:35;;;;;;;18.45;6.80;;;;;;;;;;4806829;29;20037;-76
2020/12/11 03:15:01;;;;;;;20.65;6.97;;;;;;;;;;4808445;29;20063;-77
2020/12/11 03:17:27;;;;;;;19.17;7.32;;;;;;;;;;4807993;29;20039;-76
2020/12/11 03:19:53;;;;;;;17.98;7.20;;;;;;;;;;4806947;29;20060;-76
2020/12/11 03:22:19;;;;;;;21.98;8.00;;;;;;;;;;4806949;29;20031;-77
2020/12/11 03:24:45;;;;;;;20.65;7.10;;;;;;;;;;4806961;29;20518;-75
2020/12/11 03:27:11;;;;;;;19.92;7.30;;;;;;;;;;4806658;29;20023;-77
2020/12/11 03:29:37;;;;;;;14.13;5.03;;;;;;;;;;4806696;29;20092;-76
2020/12/11 03:32:03;;;;;;;17.40;6.05;;;;;;;;;;4805998;29;20076;-77
2020/12/11 03:34:30;;;;;;;22.45;6.82;;;;;;;;;;4796690;29;20476;-77
2020/12/11 03:36:56;;;;;;;20.05;6.60;;;;;;;;;;4797557;29;20067;-77
2020/12/11 03:39:22;;;;;;;19.73;7.15;;;;;;;;;;4807161;29;20039;-77
2020/12/11 03:41:52;;;;;;;17.27;6.95;;;;;;;;;;4807825;29;20389;-77
2020/12/11 03:44:18;;;;;;;14.25;5.55;;;;;;;;;;4806317;29;20046;-77
2020/12/11 03:46:45;;;;;;;14.50;6.20;;;;;;;;;;4807678;29;20038;-77
2020/12/11 03:49:11;;;;;;;13.23;6.00;;;;;;;;;;4824633;29;20046;-76
2020/12/11 03:51:37;;;;;;;16.50;6.05;;;;;;;;;;4824595;29;20031;-76
2020/12/11 03:54:04;;;;;;;14.82;6.13;;;;;;;;;;4825889;29;20510;-76
2020/12/11 03:56:30;;;;;;;15.05;6.10;;;;;;;;;;4824622;29;20053;-77
2020/12/11 03:58:56;;;;;;;13.23;4.88;;;;;;;;;;4824654;29;20487;-77
2020/12/11 04:01:26;;;;;;;12.80;5.05;;;;;;;;;;4825740;29;20030;-77
2020/12/11 04:03:52;;;;;;;16.75;6.20;;;;;;;;;;4824316;29;20032;-77
2020/12/11 04:06:18;;;;;;;12.27;5.25;;;;;;;;;;4824221;29;20488;-76
2020/12/11 04:08:45;;;;;;;17.63;6.72;;;;;;;;;;4824206;29;20038;-76
2020/12/11 04:11:13;;;;;;;15.20;6.55;;;;;;;;;;4825502;29;20397;-77
2020/12/11 04:13:39;;;;;;;11.77;3.90;;;;;;;;;;4825086;29;20034;-77
2020/12/11 04:16:06;;;;;;;10.40;5.03;;;;;;;;;;4825477;29;20034;-76
2020/12/11 04:18:32;;;;;;;19.25;5.45;;;;;;;;;;4825270;29;20030;-77
2020/12/11 04:20:59;;;;;;;11.32;4.50;;;;;;;;;;4825129;29;20047;-76
2020/12/11 04:23:25;;;;;;;19.98;6.00;;;;;;;;;;4825311;29;20031;-75
2020/12/11 04:25:53;;;;;;;13.00;4.75;;;;;;;;;;4825311;29;20383;-76
2020/12/11 04:28:19;;;;;;;13.30;4.25;;;;;;;;;;4825208;29;20091;-76
2020/12/11 04:30:46;;;;;;;11.93;4.75;;;;;;;;;;4825272;29;20031;-77
2020/12/11 04:33:12;;;;;;;15.93;5.40;;;;;;;;;;4825207;29;20498;-77
2020/12/11 04:35:38;;;;;;;15.70;4.90;;;;;;;;;;4825156;29;20473;-76
2020/12/11 04:38:05;;;;;;;20.23;6.00;;;;;;;;;;4825370;29;20038;-77
2020/12/11 04:40:31;;;;;;;18.65;5.50;;;;;;;;;;4823799;29;20382;-76
2020/12/11 04:42:59;;;;;;;18.55;5.25;;;;;;;;;;4824972;29;20492;-77
2020/12/11 04:45:26;;;;;;;12.00;5.57;;;;;;;;;;4823577;29;20400;-77
2020/12/11 04:47:52;;;;;;;13.15;5.80;;;;;;;;;;4824837;29;20046;-77
2020/12/11 04:50:19;;;;;;;15.73;5.38;;;;;;;;;;4824810;29;20520;-76
2020/12/11 04:52:46;;;;;;;15.18;5.38;;;;;;;;;;4823714;29;20051;-76
2020/12/11 04:55:22;;;;;;;10.65;5.00;;;;;;;;;;4824997;29;20030;-77
2020/12/11 04:57:49;;;;;;;11.95;4.68;;;;;;;;;;4823657;29;20121;-77
2020/12/11 05:00:16;;;;;;;13.68;5.82;;;;;;;;;;4824720;29;20087;-77
2020/12/11 05:02:43;;;;;;;8.60;4.15;;;;;;;;;;4823414;29;20026;-77
2020/12/11 05:05:10;;;;;;;14.27;5.95;;;;;;;;;;4824991;29;20388;-77
2020/12/11 05:07:39;;;;;;;7.68;3.50;;;;;;;;;;4824894;29;20026;-75
2020/12/11 05:10:06;;;;;;;12.35;5.47;;;;;;;;;;4824336;29;20464;-76
2020/12/11 05:12:32;;;;;;;14.75;5.35;;;;;;;;;;4824478;29;20079;-76
2020/12/11 05:15:00;;;;;;;19.55;6.75;;;;;;;;;;4823480;29;20039;-77
2020/12/11 05:17:27;;;;;;;13.95;5.47;;;;;;;;;;4823495;29;20054;-76
2020/12/11 05:19:54;;;;;;;15.85;4.43;;;;;;;;;;4823347;29;20035;-77
2020/12/11 05:22:20;;;;;;;17.60;4.60;;;;;;;;;;4824379;29;20528;-77
2020/12/11 05:24:48;;;;;;;12.73;5.78;;;;;;;;;;4824482;29;20026;-75
2020/12/11 05:27:32;;;;;;;13.23;5.40;;;;;;;;;;4824677;29;20045;-75
2020/12/11 05:30:19;;;;;;;11.95;5.18;;;;;;;;;;4823227;29;20500;-75
2020/12/11 05:32:45;;;;;;;13.27;5.18;;;;;;;;;;4807878;29;20054;-75
2020/12/11 05:35:21;;;;;;;12.88;5.22;;;;;;;;;;4824139;29;20450;-75
2020/12/11 05:37:48;;;;;;;9.63;5.47;;;;;;;;;;4823163;29;20396;-76
2020/12/11 05:40:17;;;;;;;12.55;6.03;;;;;;;;;;4824408;29;20179;-76
2020/12/11 05:42:44;;;;;;;11.38;5.35;;;;;;;;;;4822815;29;20045;-75
2020/12/11 05:45:28;;;;;;;14.68;5.18;;;;;;;;;;4824277;29;20038;-76
2020/12/11 05:47:59;;;;;;;14.10;5.43;;;;;;;;;;4823711;29;20508;-76
2020/12/11 05:50:25;;;;;;;12.85;5.20;;;;;;;;;;4822856;29;20378;-77
2020/12/11 05:52:53;;;;;;;14.77;5.63;;;;;;;;;;4824147;29;20468;-76
2020/12/11 05:55:21;;;;;;;11.02;5.00;;;;;;;;;;4824147;29;20031;-77
2020/12/11 05:57:49;;;;;;;11.35;5.45;;;;;;;;;;4822655;29;20034;-77
2020/12/11 06:00:15;;;;;;;14.95;5.55;;;;;;;;;;4823940;29;20117;-77
2020/12/11 06:02:41;;;;;;;11.75;5.38;;;;;;;;;;4824162;29;20365;-76
2020/12/11 06:05:08;;;;;;;10.55;5.55;;;;;;;;;;4825272;29;20457;-75
2020/12/11 06:07:35;;;;;;;12.40;6.13;;;;;;;;;;4816267;29;20412;-74
2020/12/11 06:10:04;;;;;;;12.23;6.10;;;;;;;;;;4817574;29;20030;-75
2020/12/11 06:12:32;;;;;;;12.10;5.90;;;;;;;;;;4831781;29;20075;-75
2020/12/11 06:15:04;;;;;;;13.07;6.10;;;;;;;;;;4814107;29;20034;-75
2020/12/11 06:17:37;;;;;;;12.27;6.05;;;;;;;;;;4829837;29;20041;-76
2020/12/11 06:20:03;;;;;;;13.80;6.10;;;;;;;;;;4831300;29;20038;-74
2020/12/11 06:22:30;;;;;;;14.60;6.63;;;;;;;;;;4815602;29;20108;-75
2020/12/11 06:24:56;;;;;;;14.65;6.85;;;;;;;;;;4819326;29;20026;-73
2020/12/11 06:27:31;;;;;;;15.38;5.75;;;;;;;;;;4836044;29;20026;-74
2020/12/11 06:29:58;;;;;;;15.73;5.72;;;;;;;;;;4833521;29;20038;-76
2020/12/11 06:32:34;;;;;;;12.55;5.85;;;;;;;;;;4813186;29;20404;-76
2020/12/11 06:35:13;;;;;;;11.05;5.18;;;;;;;;;;4813619;29;20362;-75
2020/12/11 06:37:40;;;;;;;9.88;4.35;;;;;;;;;;4824957;29;20556;-78
2020/12/11 06:40:07;;;;;;;10.48;4.68;;;;;;;;;;4829337;29;20026;-76
2020/12/11 06:42:43;;;;;;;12.38;4.43;;;;;;;;;;4819277;29;20034;-74
2020/12/11 06:45:16;;;;;;;13.15;4.60;;;;;;;;;;4810130;29;20034;-76
2020/12/11 06:47:52;;;;;;;10.07;4.75;;;;;;;;;;4807039;29;20097;-78
2020/12/11 06:50:19;;;;;;;9.82;4.72;;;;;;;;;;4807099;29;20051;-78
2020/12/11 06:52:46;;;;;;;10.23;4.03;;;;;;;;;;4808656;29;20055;-76
2020/12/11 06:55:13;;;;;;;9.73;4.60;;;;;;;;;;4807081;29;20069;-77
2020/12/11 06:57:40;;;;;;;15.50;5.35;;;;;;;;;;4808304;29;20034;-77
2020/12/11 07:00:24;;;;;;;13.55;5.65;;;;;;;;;;4808550;29;20050;-77
2020/12/11 07:03:09;;;;;;;13.93;4.90;;;;;;;;;;4807164;29;20026;-76
2020/12/11 07:05:35;;;;;;;13.90;5.30;;;;;;;;;;4808463;29;20049;-74
2020/12/11 07:08:01;;;;;;;12.02;6.18;;;;;;;;;;4807789;29;20035;-77
2020/12/11 07:10:27;;;;;;;12.20;5.35;;;;;;;;;;4806983;29;20484;-76
2020/12/11 07:12:54;;;;;;;18.92;5.90;;;;;;;;;;4807117;29;20507;-77
2020/12/11 07:15:20;;;;;;;13.93;5.85;;;;;;;;;;4806959;29;20026;-78
2020/12/11 07:17:46;;;;;;;19.33;7.18;;;;;;;;;;4806987;29;20030;-84
2020/12/11 07:20:13;;;;;;;14.18;5.57;;;;;;;;;;4808151;29;20091;-77
2020/12/11 07:22:39;;;;;;;16.45;6.65;;;;;;;;;;4808000;29;20031;-77
2020/12/11 07:25:05;;;;;;;15.07;7.50;;;;;;;;;;4808259;29;20031;-78
2020/12/11 07:27:32;;;;;;;16.40;6.78;;;;;;;;;;4807055;29;20499;-78
2020/12/11 07:29:58;;;;;;;17.80;6.85;;;;;;;;;;4807938;29;20031;-78
2020/12/11 07:32:24;;;;;;;15.68;7.07;;;;;;;;;;4808204;29;20035;-79
2020/12/11 07:34:53;;;;;;;17.60;6.75;;;;;;;;;;4806721;29;20027;-77
2020/12/11 07:37:19;;;;;;;13.23;5.70;;;;;;;;;;4806802;29;20035;-81
2020/12/11 07:39:45;;;;;;;12.88;6.05;;;;;;;;;;4807913;29;20047;-78
2020/12/11 07:42:13;;;;;;;15.88;6.20;;;;;;;;;;4807560;29;20027;-83
2020/12/11 07:44:39;;;;;;;13.63;5.13;;;;;;;;;;4806180;29;20035;-76
2020/12/11 07:47:10;;;;;;;12.68;5.68;;;;;;;;;;4808804;29;20454;-76
2020/12/11 07:49:43;;;;;;;10.00;4.97;;;;;;;;;;4809382;29;20107;-77
2020/12/11 07:52:10;;;;;;;14.77;7.15;;;;;;;;;;4825979;29;20033;-76
2020/12/11 07:54:36;;;;;;;15.13;6.72;;;;;;;;;;4809345;29;20034;-81
2020/12/11 07:57:12;;;;;;;12.55;5.53;;;;;;;;;;4825509;29;20035;-76
2020/12/11 07:59:38;;;;;;;16.15;6.68;;;;;;;;;;4809000;29;20038;-76
2020/12/11 08:02:04;;;;;;;16.83;6.65;;;;;;;;;;4825576;29;20034;-75
2020/12/11 08:04:31;;;;;;;13.10;6.03;;;;;;;;;;4808910;29;20053;-77
2020/12/11 08:06:57;;;;;;;14.60;7.63;;;;;;;;;;4809182;29;20038;-77
2020/12/11 08:09:28;;;;;;;12.10;6.70;;;;;;;;;;4809028;29;20034;-78
2020/12/11 08:11:54;;;;;;;17.75;6.78;;;;;;;;;;4809032;29;20066;-79
2020/12/11 08:14:21;;;;;;;13.98;6.95;;;;;;;;;;4825268;29;20042;-76
2020/12/11 08:16:48;;;;;;;19.05;7.85;;;;;;;;;;4809011;29;20030;-79
2020/12/11 08:19:14;;;;;;;13.55;6.18;;;;;;;;;;4808904;29;20485;-79
2020/12/11 08:21:44;;;;;;;13.70;6.82;;;;;;;;;;4808807;29;20045;-79
2020/12/11 08:24:10;;;;;;;13.15;6.45;;;;;;;;;;4825078;29;20026;-80
2020/12/11 08:26:38;;;;;;;14.50;6.88;;;;;;;;;;4808054;29;20034;-76
2020/12/11 08:29:08;;;;;;;13.32;6.35;;;;;;;;;;4824744;29;20042;-77
2020/12/11 08:31:38;;;;;;;14.80;7.00;;;;;;;;;;4808723;29;20045;-76
2020/12/11 08:34:05;;;;;;;15.82;6.82;;;;;;;;;;4808498;29;20042;-77
2020/12/11 08:36:33;;;;;;;14.73;6.72;;;;;;;;;;4808450;29;20030;-77
2020/12/11 08:39:06;;;;;;;17.48;6.85;;;;;;;;;;4808531;29;20033;-80
2020/12/11 08:41:35;;;;;;;;;;;;;;;;;;4808947;29;20072;-83
2020/12/11 08:44:04;;;;;;;12.40;5.90;;;;;;;;;;4822908;29;19915;-78
2020/12/11 08:46:46;;;;;;;15.68;6.78;;;;;;;;;;4824396;29;20038;-80
2020/12/11 08:49:22;;;;;;;14.13;6.25;;;;;;;;;;4807717;29;20054;-79
2020/12/11 08:51:48;;;;;;;15.05;6.82;;;;;;;;;;4824842;29;20042;-80
2020/12/11 08:54:15;;;;;;;13.98;7.35;;;;;;;;;;4808455;29;20104;-78
2020/12/11 08:56:45;;;;;;;15.55;6.97;;;;;;;;;;4808361;29;20062;-78
2020/12/11 08:59:11;;;;;;;11.68;5.72;;;;;;;;;;4807818;29;20034;-77
2020/12/11 09:01:41;;;;;;;13.52;5.95;;;;;;;;;;4824772;29;20472;-81
2020/12/11 09:04:07;;;;;;;10.98;5.90;;;;;;;;;;4808127;29;20022;-77
2020/12/11 09:06:33;;;;;;;16.25;7.53;;;;;;;;;;4808211;29;20129;-78
2020/12/11 09:09:01;;;;;;;17.55;7.25;;;;;;;;;;4824533;29;20070;-78
2020/12/11 09:11:27;;;;;;;17.05;6.90;;;;;;;;;;4824568;29;20038;-78
2020/12/11 09:13:53;;;;;;;15.48;6.90;;;;;;;;;;4824427;29;20033;-75
2020/12/11 09:16:19;;;;;;;16.45;6.72;;;;;;;;;;4808128;29;20030;-80
2020/12/11 09:18:45;;;;;;;16.38;6.97;;;;;;;;;;4824364;29;20030;-76
2020/12/11 09:21:12;;;;;;;12.77;5.97;;;;;;;;;;4807989;29;20483;-77
2020/12/11 09:23:38;;;;;;;13.93;6.53;;;;;;;;;;4824343;29;20030;-77
2020/12/11 09:26:04;;;;;;;13.82;7.43;;;;;;;;;;4807980;29;20038;-78
2020/12/11 09:28:30;;;;;;;18.35;7.00;;;;;;;;;;4807708;29;20022;-79
2020/12/11 09:30:56;;;;;;;9.02;4.40;;;;;;;;;;4807830;29;20453;-78
2020/12/11 09:33:24;;;;;;;16.17;6.80;;;;;;;;;;4824180;29;20500;-78
2020/12/11 09:35:51;;;;;;;24.50;8.65;;;;;;;;;;4807744;29;20393;-78
2020/12/11 09:38:17;;;;;;;17.65;7.43;;;;;;;;;;4807730;29;20037;-78
2020/12/11 09:40:56;;;;;;;17.48;8.43;;;;;;;;;;4824286;29;20042;-78
2020/12/11 09:49:25;;;;;;;15.55;7.55;;;;;;;;;;4749999;30;20056;-77
2020/12/11 09:52:47;;;;;;;15.43;7.43;;;;;;;;;;4749913;30;20125;-78
2020/12/11 09:54:34;;;;;;;19.50;7.35;;;;;;;;;;4802273;29;20030;-78
2020/12/11 09:57:01;;;;;;;17.58;7.28;;;;;;;;;;4808899;29;20030;-77
2020/12/11 09:59:37;;;;;;;14.07;6.95;;;;;;;;;;4827447;29;20068;-77
2020/12/11 10:02:16;;;;;;;16.67;7.82;;;;;;;;;;4811244;29;20030;-77
2020/12/11 10:04:47;;;;;;;20.42;8.13;;;;;;;;;;4811182;29;20037;-77
2020/12/11 10:07:13;;;;;;;15.73;7.00;;;;;;;;;;4827558;29;20484;-79
2020/12/11 10:09:41;;;;;;;16.33;7.00;;;;;;;;;;4810893;29;20036;-79
2020/12/11 10:12:09;;;;;;;19.35;7.22;;;;;;;;;;4827402;29;20498;-78
2020/12/11 10:14:39;;;;;;;15.27;7.15;;;;;;;;;;4827193;29;20493;-77
2020/12/11 10:17:05;;;;;;;17.88;7.30;;;;;;;;;;4810943;29;20125;-77
2020/12/11 10:19:32;;;;;;;16.35;6.93;;;;;;;;;;4827175;29;20026;-79
2020/12/11 10:21:58;;;;;;;16.10;7.20;;;;;;;;;;4827174;29;20503;-77
2020/12/11 10:24:25;;;;;;;15.85;6.85;;;;;;;;;;4826886;29;20353;-79
2020/12/11 10:26:51;;;;;;;14.90;6.78;;;;;;;;;;4827639;29;20037;-78
2020/12/11 10:29:17;;;;;;;15.25;7.57;;;;;;;;;;4827026;29;20033;-78
2020/12/11 10:31:44;;;;;;;12.35;6.20;;;;;;;;;;4827218;29;20038;-76
2020/12/11 10:34:13;;;;;;;18.35;7.78;;;;;;;;;;4810684;29;20034;-76
2020/12/11 10:36:40;;;;;;;16.33;7.20;;;;;;;;;;4810455;29;20034;-77
2020/12/11 10:39:06;;;;;;;18.42;7.18;;;;;;;;;;4826657;29;20042;-77
2020/12/11 10:41:32;;;;;;;15.80;6.07;;;;;;;;;;4810494;29;20492;-76
2020/12/11 10:43:58;;;;;;;15.77;6.63;;;;;;;;;;4810390;29;20038;-77
2020/12/11 10:46:25;;;;;;;15.60;6.68;;;;;;;;;;4810377;29;20134;-76
2020/12/11 10:48:51;;;;;;;16.52;6.78;;;;;;;;;;4810265;29;20073;-78
2020/12/11 10:51:17;;;;;;;14.20;5.63;;;;;;;;;;4810277;29;20079;-77
2020/12/11 10:53:44;;;;;;;13.75;5.40;;;;;;;;;;4810397;29;20129;-76
2020/12/11 10:56:10;;;;;;;13.70;6.15;;;;;;;;;;4809928;29;20034;-79
2020/12/11 10:58:37;;;;;;;12.63;6.22;;;;;;;;;;4810013;29;20111;-77
2020/12/11 11:01:04;;;;;;;12.13;6.13;;;;;;;;;;4810008;29;20056;-77
2020/12/11 11:03:32;;;;;;;10.35;4.90;;;;;;;;;;4809808;29;20031;-76
2020/12/11 11:06:43;;;;;;;14.35;5.88;;;;;;;;;;4822592;29;20035;-77
2020/12/11 11:11:20;;;;;;;13.27;4.65;;;;;;;;;;4826276;29;20038;-77
2020/12/11 11:14:07;;;;;;;12.73;5.65;;;;;;;;;;4810063;29;20086;-79
2020/12/11 11:17:13;;;;;;;15.88;5.38;;;;;;;;;;4826332;29;20127;-79
2020/12/11 11:29:44;;;;;;;13.32;5.93;;;;;;;;;;4826016;29;20034;-77
2020/12/11 11:32:10;;;;;;;10.60;5.10;;;;;;;;;;4826084;29;20492;-78
2020/12/11 11:34:36;;;;;;;9.20;5.03;;;;;;;;;;4809682;29;20412;-75
2020/12/11 11:37:02;;;;;;;11.10;5.50;;;;;;;;;;4825748;29;20038;-80
2020/12/11 11:39:28;;;;;;;13.02;6.30;;;;;;;;;;4825700;29;20062;-78
2020/12/11 11:41:55;;;;;;;15.07;6.45;;;;;;;;;;4825603;29;20045;-77
2020/12/11 11:44:31;;;;;;;12.95;6.35;;;;;;;;;;4808888;29;20030;-75
2020/12/11 11:46:57;;;;;;;9.38;5.05;;;;;;;;;;4809194;29;20182;-78
2020/12/11 11:49:38;;;;;;;13.73;6.35;;;;;;;;;;4809032;29;20104;-75
2020/12/11 11:52:15;;;;;;;11.13;5.65;;;;;;;;;;4807009;29;20031;-75
2020/12/11 11:54:42;;;;;;;13.40;5.85;;;;;;;;;;4823263;29;20023;-77
2020/12/11 11:57:08;;;;;;;9.23;4.63;;;;;;;;;;4825215;29;20100;-78
2020/12/11 11:59:34;;;;;;;11.73;5.78;;;;;;;;;;4824940;29;20050;-76
2020/12/11 12:02:00;;;;;;;14.65;6.82;;;;;;;;;;4818976;29;20030;-77
2020/12/11 12:04:26;;;;;;;16.63;6.05;;;;;;;;;;4808720;29;20034;-77
2020/12/11 12:06:52;;;;;;;11.95;5.10;;;;;;;;;;4822973;29;20030;-77
2020/12/11 12:09:18;;;;;;;9.65;5.13;;;;;;;;;;4824980;29;20072;-75
2020/12/11 12:11:45;;;;;;;13.00;6.28;;;;;;;;;;4825048;29;20034;-75
2020/12/11 12:14:11;;;;;;;12.18;5.78;;;;;;;;;;4808363;29;20049;-75
2020/12/11 12:16:38;;;;;;;14.25;7.07;;;;;;;;;;4825077;29;20027;-77
2020/12/11 12:19:07;;;;;;;13.43;6.35;;;;;;;;;;4824804;29;20049;-78
2020/12/11 12:29:31;;;;;;;14.43;7.43;;;;;;;;;;4790916;29;20110;-75
2020/12/11 12:32:03;;;;;;;14.57;6.53;;;;;;;;;;4786888;30;20035;-77
2020/12/11 12:37:13;;;;;;;21.38;8.50;;;;;;;;;;4824966;29;20446;-78
2020/12/11 12:42:35;;;;;;;24.20;8.43;;;;;;;;;;4824860;29;20114;-78
2020/12/11 12:45:00;;;;;;;16.92;6.90;;;;;;;;;;4824201;29;20337;-76
2020/12/11 12:47:26;;;;;;;21.75;7.10;;;;;;;;;;4808399;29;20070;-77
2020/12/11 12:49:52;;;;;;;13.82;5.93;;;;;;;;;;4824844;29;20114;-78
2020/12/11 12:52:19;;;;;;;21.55;7.20;;;;;;;;;;4808123;29;20492;-78
2020/12/11 12:54:45;;;;;;;17.25;7.05;;;;;;;;;;4824657;29;20045;-77
2020/12/11 12:57:46;;;;;;;15.45;7.53;;;;;;;;;;4807899;29;20038;-77
2020/12/11 13:00:24;;;;;;;17.58;8.35;;;;;;;;;;4823344;29;20046;-76
2020/12/11 13:05:32;;;;;;;15.57;7.32;;;;;;;;;;4824579;29;20042;-78
2020/12/11 13:08:01;;;;;;;18.67;7.25;;;;;;;;;;4824628;29;20031;-77
2020/12/11 13:10:27;;;;;;;19.35;7.53;;;;;;;;;;4808026;29;20052;-78
2020/12/11 13:12:54;;;;;;;17.95;7.13;;;;;;;;;;4807980;29;20043;-79
2020/12/11 13:15:21;;;;;;;18.83;7.10;;;;;;;;;;4824078;29;20037;-78
2020/12/11 13:17:47;;;;;;;19.45;7.85;;;;;;;;;;4824482;29;20026;-77
2020/12/11 13:20:18;;;;;;;21.75;6.93;;;;;;;;;;4824399;29;20514;-79
2020/12/11 13:25:19;;;;;;;25.65;8.07;;;;;;;;;;4807848;29;20030;-78
2020/12/11 13:28:13;;;;;;;18.80;7.82;;;;;;;;;;4824326;29;20031;-78
2020/12/11 13:30:40;;;;;;;19.83;8.52;;;;;;;;;;4824634;29;20035;-77
2020/12/11 13:33:06;;;;;;;19.40;7.30;;;;;;;;;;4807712;29;20031;-78
2020/12/11 13:35:32;;;;;;;17.75;7.72;;;;;;;;;;4823982;29;20038;-77
2020/12/11 13:37:58;;;;;;;18.73;7.22;;;;;;;;;;4807138;29;20023;-78
2020/12/11 13:40:25;;;;;;;17.15;7.95;;;;;;;;;;4807507;29;20385;-76
2020/12/11 13:42:51;;;;;;;18.10;7.43;;;;;;;;;;4807650;29;20036;-75
2020/12/11 13:45:17;;;;;;;27.67;9.75;;;;;;;;;;4824110;29;20374;-77
2020/12/11 13:47:43;;;;;;;20.52;8.38;;;;;;;;;;4824072;29;20140;-75
2020/12/11 13:50:10;;;;;;;15.63;5.60;;;;;;;;;;4807499;29;20046;-76
2020/12/11 13:52:36;;;;;;;15.70;7.10;;;;;;;;;;4807358;29;20030;-77
2020/12/11 13:55:02;;;;;;;22.38;8.57;;;;;;;;;;4806444;29;20479;-77
2020/12/11 13:57:28;;;;;;;19.38;7.68;;;;;;;;;;4806907;29;20027;-78
2020/12/11 13:59:57;;;;;;;23.15;8.27;;;;;;;;;;4823820;29;20046;-77
2020/12/11 14:02:23;;;;;;;20.75;7.90;;;;;;;;;;4823605;29;20019;-74
2020/12/11 14:04:49;;;;;;;17.45;7.45;;;;;;;;;;4823868;29;20042;-73
2020/12/11 14:07:15;;;;;;;16.73;7.35;;;;;;;;;;4823621;29;20034;-75
2020/12/11 14:09:41;;;;;;;17.67;7.00;;;;;;;;;;4807428;29;20062;-75
2020/12/11 14:12:07;;;;;;;19.77;6.53;;;;;;;;;;4807736;29;20034;-75
2020/12/11 14:14:33;;;;;;;22.58;8.07;;;;;;;;;;4807269;29;20031;-73
2020/12/11 14:17:01;;;;;;;18.65;7.07;;;;;;;;;;4823720;29;20433;-76
2020/12/11 14:19:44;;;;;;;19.15;8.90;;;;;;;;;;4806708;29;20034;-77
2020/12/11 14:22:54;;;;;;;19.63;7.45;;;;;;;;;;4822755;29;20044;-78
2020/12/11 14:24:59;;;;;;;21.60;8.05;;;;;;;;;;4820514;29;20572;-78
2020/12/11 14:27:26;;;;;;;22.17;7.28;;;;;;;;;;4807040;29;20484;-73
2020/12/11 14:29:53;;;;;;;28.45;9.50;;;;;;;;;;4807015;29;20079;-74
2020/12/11 14:32:20;;;;;;;19.10;6.45;;;;;;;;;;4823495;29;20033;-75
2020/12/11 14:34:47;;;;;;;26.92;8.77;;;;;;;;;;4823397;29;20034;-75
2020/12/11 14:37:14;;;;;;;24.65;9.30;;;;;;;;;;4823568;29;20029;-74
2020/12/11 14:39:40;;;;;;;18.15;6.25;;;;;;;;;;4823521;29;20038;-75
2020/12/11 14:42:06;;;;;;;28.85;11.38;;;;;;;;;;4806906;29;20030;-75
2020/12/11 14:44:34;;;;;;;15.60;6.72;;;;;;;;;;4825608;29;20026;-75
2020/12/11 14:47:00;;;;;;;28.10;9.20;;;;;;;;;;4810099;29;20058;-77
2020/12/11 14:49:26;;;;;;;22.10;7.22;;;;;;;;;;4810437;29;20051;-77
2020/12/11 14:51:53;;;;;;;21.95;9.25;;;;;;;;;;4810117;29;20357;-77
2020/12/11 14:54:19;;;;;;;20.02;7.63;;;;;;;;;;4810155;29;20035;-77
2020/12/11 14:56:47;;;;;;;21.15;6.97;;;;;;;;;;4810067;29;20034;-74
2020/12/11 14:59:14;;;;;;;28.90;8.10;;;;;;;;;;4808798;29;20041;-71
2020/12/11 15:01:40;;;;;;;20.13;7.35;;;;;;;;;;4826321;29;20030;-74
2020/12/11 15:04:07;;;;;;;26.48;8.10;;;;;;;;;;4826184;29;20030;-73
2020/12/11 15:06:33;;;;;;;18.80;7.75;;;;;;;;;;4809802;29;20035;-73
2020/12/11 15:09:02;;;;;;;23.40;7.82;;;;;;;;;;4826018;29;20031;-73
2020/12/11 15:11:28;;;;;;;16.00;6.72;;;;;;;;;;4826530;29;20048;-73
2020/12/11 15:13:54;;;;;;;19.92;6.68;;;;;;;;;;4809814;29;20027;-73